sensor_id;sensor_type;location;lat;lon;timestamp;P1;durP1;ratioP1;P2;durP2;ratioP2
7661;SDS011;30314;48.184;11.510;2024-03-02T00:00:51;14.00;;;8.60;;
7661;SDS011;30314;48.184;11.510;2024-03-02T00:03:19;14.77;;;10.10;;
7661;SDS011;30314;48.184;11.510;2024-03-02T00:05:49;12.03;;;8.70;;
7661;SDS011;30314;48.184;11.510;2024-03-02T00:08:24;12.77;;;9.03;;
7661;SDS011;30314;48.184;11.510;2024-03-02T00:10:52;16.20;;;8.60;;
7661;SDS011;30314;48.184;11.510;2024-03-02T00:13:24;13.83;;;8.73;;
7661;SDS011;30314;48.184;11.510;2024-03-02T00:15:51;13.23;;;8.50;;
7661;SDS011;30314;48.184;11.510;2024-03-02T00:18:20;14.50;;;10.03;;
7661;SDS011;30314;48.184;11.510;2024-03-02T00:20:55;13.93;;;8.93;;
7661;SDS011;30314;48.184;11.510;2024-03-02T00:23:24;15.10;;;9.93;;
7661;SDS011;30314;48.184;11.510;2024-03-02T00:25:53;10.53;;;7.40;;
7661;SDS011;30314;48.184;11.510;2024-03-02T00:28:25;13.03;;;9.30;;
7661;SDS011;30314;48.184;11.510;2024-03-02T00:36:07;12.33;;;8.10;;
7661;SDS011;30314;48.184;11.510;2024-03-02T00:38:34;11.70;;;8.10;;
7661;SDS011;30314;48.184;11.510;2024-03-02T00:41:15;13.83;;;8.73;;
7661;SDS011;30314;48.184;11.510;2024-03-02T00:46:18;16.67;;;9.57;;
7661;SDS011;30314;48.184;11.510;2024-03-02T00:48:59;14.83;;;9.73;;
7661;SDS011;30314;48.184;11.510;2024-03-02T00:51:28;16.40;;;10.03;;
7661;SDS011;30314;48.184;11.510;2024-03-02T00:54:04;11.30;;;8.40;;
7661;SDS011;30314;48.184;11.510;2024-03-02T00:56:32;16.73;;;9.00;;
7661;SDS011;30314;48.184;11.510;2024-03-02T00:58:59;21.03;;;9.13;;
7661;SDS011;30314;48.184;11.510;2024-03-02T01:01:25;14.17;;;8.80;;
7661;SDS011;30314;48.184;11.510;2024-03-02T01:03:52;12.83;;;9.17;;
7661;SDS011;30314;48.184;11.510;2024-03-02T01:06:19;21.50;;;10.77;;
7661;SDS011;30314;48.184;11.510;2024-03-02T01:08:46;15.40;;;9.63;;
7661;SDS011;30314;48.184;11.510;2024-03-02T01:11:17;13.10;;;8.70;;
7661;SDS011;30314;48.184;11.510;2024-03-02T01:13:45;11.63;;;8.17;;
7661;SDS011;30314;48.184;11.510;2024-03-02T01:16:12;14.30;;;8.93;;
7661;SDS011;30314;48.184;11.510;2024-03-02T01:18:39;13.03;;;8.40;;
7661;SDS011;30314;48.184;11.510;2024-03-02T01:21:06;12.10;;;8.73;;
7661;SDS011;30314;48.184;11.510;2024-03-02T01:23:33;15.23;;;9.60;;
7661;SDS011;30314;48.184;11.510;2024-03-02T01:25:59;11.80;;;8.17;;
7661;SDS011;30314;48.184;11.510;2024-03-02T01:28:26;14.03;;;8.70;;
7661;SDS011;30314;48.184;11.510;2024-03-02T01:30:53;15.00;;;8.67;;
7661;SDS011;30314;48.184;11.510;2024-03-02T01:33:19;10.77;;;7.97;;
7661;SDS011;30314;48.184;11.510;2024-03-02T01:35:51;11.70;;;8.17;;
7661;SDS011;30314;48.184;11.510;2024-03-02T01:38:18;11.77;;;8.63;;
7661;SDS011;30314;48.184;11.510;2024-03-02T01:40:44;13.97;;;8.57;;
7661;SDS011;30314;48.184;11.510;2024-03-02T01:43:11;12.10;;;8.10;;
7661;SDS011;30314;48.184;11.510;2024-03-02T01:45:38;11.33;;;7.90;;
7661;SDS011;30314;48.184;11.510;2024-03-02T01:48:05;13.77;;;9.27;;
7661;SDS011;30314;48.184;11.510;2024-03-02T01:50:33;13.33;;;7.93;;
7661;SDS011;30314;48.184;11.510;2024-03-02T01:53:01;12.50;;;8.07;;
7661;SDS011;30314;48.184;11.510;2024-03-02T01:55:29;13.80;;;7.60;;
7661;SDS011;30314;48.184;11.510;2024-03-02T01:57:57;12.20;;;9.20;;
7661;SDS011;30314;48.184;11.510;2024-03-02T02:00:25;10.40;;;7.60;;
7661;SDS011;30314;48.184;11.510;2024-03-02T02:02:53;12.43;;;9.27;;
7661;SDS011;30314;48.184;11.510;2024-03-02T02:05:21;12.87;;;8.60;;
7661;SDS011;30314;48.184;11.510;2024-03-02T02:07:48;12.07;;;8.20;;
7661;SDS011;30314;48.184;11.510;2024-03-02T02:10:15;13.83;;;8.67;;
7661;SDS011;30314;48.184;11.510;2024-03-02T02:12:41;12.07;;;9.00;;
7661;SDS011;30314;48.184;11.510;2024-03-02T02:15:30;14.40;;;8.10;;
7661;SDS011;30314;48.184;11.510;2024-03-02T02:17:57;16.80;;;9.00;;
7661;SDS011;30314;48.184;11.510;2024-03-02T02:20:25;12.30;;;8.03;;
7661;SDS011;30314;48.184;11.510;2024-03-02T02:22:56;11.40;;;8.90;;
7661;SDS011;30314;48.184;11.510;2024-03-02T02:25:24;10.47;;;8.10;;
7661;SDS011;30314;48.184;11.510;2024-03-02T02:27:51;12.90;;;8.27;;
7661;SDS011;30314;48.184;11.510;2024-03-02T02:30:25;11.63;;;8.30;;
7661;SDS011;30314;48.184;11.510;2024-03-02T02:32:54;11.77;;;8.23;;
7661;SDS011;30314;48.184;11.510;2024-03-02T02:35:21;13.03;;;8.87;;
7661;SDS011;30314;48.184;11.510;2024-03-02T02:37:48;13.13;;;8.33;;
7661;SDS011;30314;48.184;11.510;2024-03-02T02:40:15;12.93;;;9.10;;
7661;SDS011;30314;48.184;11.510;2024-03-02T02:42:42;14.97;;;9.03;;
7661;SDS011;30314;48.184;11.510;2024-03-02T02:45:09;12.00;;;8.17;;
7661;SDS011;30314;48.184;11.510;2024-03-02T02:47:37;11.77;;;8.40;;
7661;SDS011;30314;48.184;11.510;2024-03-02T02:50:06;13.00;;;8.77;;
7661;SDS011;30314;48.184;11.510;2024-03-02T02:52:33;14.43;;;9.37;;
7661;SDS011;30314;48.184;11.510;2024-03-02T02:55:03;11.70;;;7.67;;
7661;SDS011;30314;48.184;11.510;2024-03-02T02:57:30;12.13;;;8.67;;
7661;SDS011;30314;48.184;11.510;2024-03-02T03:00:11;12.13;;;8.03;;
7661;SDS011;30314;48.184;11.510;2024-03-02T03:02:42;12.30;;;8.90;;
7661;SDS011;30314;48.184;11.510;2024-03-02T03:05:11;14.90;;;9.83;;
7661;SDS011;30314;48.184;11.510;2024-03-02T03:07:39;15.90;;;10.40;;
7661;SDS011;30314;48.184;11.510;2024-03-02T03:10:07;14.07;;;9.60;;
7661;SDS011;30314;48.184;11.510;2024-03-02T03:12:34;15.70;;;9.00;;
7661;SDS011;30314;48.184;11.510;2024-03-02T03:15:01;15.30;;;9.67;;
7661;SDS011;30314;48.184;11.510;2024-03-02T03:17:30;15.37;;;10.50;;
7661;SDS011;30314;48.184;11.510;2024-03-02T03:19:57;17.13;;;10.30;;
7661;SDS011;30314;48.184;11.510;2024-03-02T03:22:23;16.23;;;10.83;;
7661;SDS011;30314;48.184;11.510;2024-03-02T03:24:50;13.20;;;8.70;;
7661;SDS011;30314;48.184;11.510;2024-03-02T03:27:17;16.60;;;10.57;;
7661;SDS011;30314;48.184;11.510;2024-03-02T03:29:43;13.30;;;9.70;;
7661;SDS011;30314;48.184;11.510;2024-03-02T03:32:10;16.93;;;11.40;;
7661;SDS011;30314;48.184;11.510;2024-03-02T03:34:36;21.10;;;12.17;;
7661;SDS011;30314;48.184;11.510;2024-03-02T03:37:03;16.03;;;10.13;;
7661;SDS011;30314;48.184;11.510;2024-03-02T03:39:29;14.90;;;10.20;;
7661;SDS011;30314;48.184;11.510;2024-03-02T03:41:56;19.13;;;12.03;;
7661;SDS011;30314;48.184;11.510;2024-03-02T03:44:23;17.30;;;10.50;;
7661;SDS011;30314;48.184;11.510;2024-03-02T03:46:49;19.30;;;12.00;;
7661;SDS011;30314;48.184;11.510;2024-03-02T03:49:16;22.33;;;10.13;;
7661;SDS011;30314;48.184;11.510;2024-03-02T03:51:43;15.33;;;10.03;;
7661;SDS011;30314;48.184;11.510;2024-03-02T03:54:10;17.03;;;10.13;;
7661;SDS011;30314;48.184;11.510;2024-03-02T03:56:37;16.83;;;10.13;;
7661;SDS011;30314;48.184;11.510;2024-03-02T03:59:04;15.63;;;10.50;;
7661;SDS011;30314;48.184;11.510;2024-03-02T04:01:31;18.90;;;10.13;;
7661;SDS011;30314;48.184;11.510;2024-03-02T04:03:58;15.00;;;9.77;;
7661;SDS011;30314;48.184;11.510;2024-03-02T04:06:24;15.63;;;9.73;;
7661;SDS011;30314;48.184;11.510;2024-03-02T04:08:51;16.20;;;10.07;;
7661;SDS011;30314;48.184;11.510;2024-03-02T04:11:18;14.73;;;9.47;;
7661;SDS011;30314;48.184;11.510;2024-03-02T04:13:45;12.43;;;8.27;;
7661;SDS011;30314;48.184;11.510;2024-03-02T04:16:11;12.47;;;9.03;;
7661;SDS011;30314;48.184;11.510;2024-03-02T04:18:38;13.80;;;9.30;;
7661;SDS011;30314;48.184;11.510;2024-03-02T04:21:06;13.00;;;8.57;;
7661;SDS011;30314;48.184;11.510;2024-03-02T04:23:33;12.30;;;7.80;;
7661;SDS011;30314;48.184;11.510;2024-03-02T04:25:59;19.00;;;11.00;;
7661;SDS011;30314;48.184;11.510;2024-03-02T04:28:26;15.20;;;9.10;;
7661;SDS011;30314;48.184;11.510;2024-03-02T04:30:52;20.13;;;9.80;;
7661;SDS011;30314;48.184;11.510;2024-03-02T04:33:19;15.07;;;8.73;;
7661;SDS011;30314;48.184;11.510;2024-03-02T04:35:46;16.87;;;9.87;;
7661;SDS011;30314;48.184;11.510;2024-03-02T04:38:12;14.73;;;9.80;;
7661;SDS011;30314;48.184;11.510;2024-03-02T04:40:39;16.17;;;10.80;;
7661;SDS011;30314;48.184;11.510;2024-03-02T04:43:05;17.23;;;11.07;;
7661;SDS011;30314;48.184;11.510;2024-03-02T04:45:32;20.93;;;12.07;;
7661;SDS011;30314;48.184;11.510;2024-03-02T04:47:59;14.40;;;9.80;;
7661;SDS011;30314;48.184;11.510;2024-03-02T04:50:25;15.97;;;9.80;;
7661;SDS011;30314;48.184;11.510;2024-03-02T04:52:52;14.23;;;9.60;;
7661;SDS011;30314;48.184;11.510;2024-03-02T04:55:18;18.47;;;10.80;;
7661;SDS011;30314;48.184;11.510;2024-03-02T04:57:45;14.60;;;9.87;;
7661;SDS011;30314;48.184;11.510;2024-03-02T05:00:12;14.70;;;10.30;;
7661;SDS011;30314;48.184;11.510;2024-03-02T05:02:39;16.97;;;10.70;;
7661;SDS011;30314;48.184;11.510;2024-03-02T05:05:06;14.07;;;9.93;;
7661;SDS011;30314;48.184;11.510;2024-03-02T05:07:33;16.77;;;10.30;;
7661;SDS011;30314;48.184;11.510;2024-03-02T05:09:59;17.60;;;11.20;;
7661;SDS011;30314;48.184;11.510;2024-03-02T05:12:26;21.73;;;10.83;;
7661;SDS011;30314;48.184;11.510;2024-03-02T05:15:15;17.10;;;10.90;;
7661;SDS011;30314;48.184;11.510;2024-03-02T05:17:42;16.80;;;10.20;;
7661;SDS011;30314;48.184;11.510;2024-03-02T05:20:12;15.27;;;10.03;;
7661;SDS011;30314;48.184;11.510;2024-03-02T05:22:38;19.67;;;11.30;;
7661;SDS011;30314;48.184;11.510;2024-03-02T05:25:06;15.63;;;10.70;;
7661;SDS011;30314;48.184;11.510;2024-03-02T05:27:33;17.60;;;11.00;;
7661;SDS011;30314;48.184;11.510;2024-03-02T05:30:00;15.47;;;10.03;;
7661;SDS011;30314;48.184;11.510;2024-03-02T05:32:27;19.43;;;11.57;;
7661;SDS011;30314;48.184;11.510;2024-03-02T05:34:54;15.73;;;9.97;;
7661;SDS011;30314;48.184;11.510;2024-03-02T05:37:21;15.00;;;9.90;;
7661;SDS011;30314;48.184;11.510;2024-03-02T05:39:48;17.03;;;11.00;;
7661;SDS011;30314;48.184;11.510;2024-03-02T05:42:14;17.37;;;11.83;;
7661;SDS011;30314;48.184;11.510;2024-03-02T05:44:43;19.07;;;12.27;;
7661;SDS011;30314;48.184;11.510;2024-03-02T05:47:09;18.33;;;12.33;;
7661;SDS011;30314;48.184;11.510;2024-03-02T05:49:36;17.30;;;11.27;;
7661;SDS011;30314;48.184;11.510;2024-03-02T05:52:02;18.43;;;12.70;;
7661;SDS011;30314;48.184;11.510;2024-03-02T05:54:29;19.70;;;11.37;;
7661;SDS011;30314;48.184;11.510;2024-03-02T05:56:56;18.53;;;12.40;;
7661;SDS011;30314;48.184;11.510;2024-03-02T05:59:22;17.27;;;10.43;;
7661;SDS011;30314;48.184;11.510;2024-03-02T06:01:49;16.87;;;10.60;;
7661;SDS011;30314;48.184;11.510;2024-03-02T06:04:18;19.37;;;11.80;;
7661;SDS011;30314;48.184;11.510;2024-03-02T06:06:45;17.83;;;12.00;;
7661;SDS011;30314;48.184;11.510;2024-03-02T06:09:11;17.60;;;11.23;;
7661;SDS011;30314;48.184;11.510;2024-03-02T06:11:42;16.80;;;10.63;;
7661;SDS011;30314;48.184;11.510;2024-03-02T06:14:09;17.80;;;12.17;;
7661;SDS011;30314;48.184;11.510;2024-03-02T06:16:38;24.83;;;13.37;;
7661;SDS011;30314;48.184;11.510;2024-03-02T06:19:05;20.00;;;13.57;;
7661;SDS011;30314;48.184;11.510;2024-03-02T06:21:31;19.13;;;12.27;;
7661;SDS011;30314;48.184;11.510;2024-03-02T06:23:58;17.53;;;10.30;;
7661;SDS011;30314;48.184;11.510;2024-03-02T06:26:24;20.03;;;13.10;;
7661;SDS011;30314;48.184;11.510;2024-03-02T06:28:51;18.60;;;12.30;;
7661;SDS011;30314;48.184;11.510;2024-03-02T06:31:19;19.17;;;11.90;;
7661;SDS011;30314;48.184;11.510;2024-03-02T06:33:45;20.67;;;12.47;;
7661;SDS011;30314;48.184;11.510;2024-03-02T06:36:12;20.00;;;12.13;;
7661;SDS011;30314;48.184;11.510;2024-03-02T06:38:39;21.47;;;13.77;;
7661;SDS011;30314;48.184;11.510;2024-03-02T06:41:09;23.03;;;14.10;;
7661;SDS011;30314;48.184;11.510;2024-03-02T06:43:35;16.57;;;12.10;;
7661;SDS011;30314;48.184;11.510;2024-03-02T06:46:02;19.27;;;12.30;;
7661;SDS011;30314;48.184;11.510;2024-03-02T06:48:29;19.97;;;11.87;;
7661;SDS011;30314;48.184;11.510;2024-03-02T06:50:56;17.00;;;10.70;;
7661;SDS011;30314;48.184;11.510;2024-03-02T06:53:24;21.90;;;12.97;;
7661;SDS011;30314;48.184;11.510;2024-03-02T06:55:51;20.37;;;12.33;;
7661;SDS011;30314;48.184;11.510;2024-03-02T06:58:17;17.20;;;11.70;;
7661;SDS011;30314;48.184;11.510;2024-03-02T07:00:44;17.13;;;11.90;;
7661;SDS011;30314;48.184;11.510;2024-03-02T07:03:10;15.80;;;10.23;;
7661;SDS011;30314;48.184;11.510;2024-03-02T07:05:37;20.10;;;12.47;;
7661;SDS011;30314;48.184;11.510;2024-03-02T07:08:04;20.93;;;12.10;;
7661;SDS011;30314;48.184;11.510;2024-03-02T07:10:31;18.60;;;11.70;;
7661;SDS011;30314;48.184;11.510;2024-03-02T07:12:58;19.60;;;11.47;;
7661;SDS011;30314;48.184;11.510;2024-03-02T07:15:24;18.43;;;12.20;;
7661;SDS011;30314;48.184;11.510;2024-03-02T07:18:05;20.50;;;12.13;;
7661;SDS011;30314;48.184;11.510;2024-03-02T07:20:32;17.10;;;11.20;;
7661;SDS011;30314;48.184;11.510;2024-03-02T07:22:58;20.30;;;11.73;;
7661;SDS011;30314;48.184;11.510;2024-03-02T07:25:25;14.33;;;9.80;;
7661;SDS011;30314;48.184;11.510;2024-03-02T07:27:54;16.33;;;10.70;;
7661;SDS011;30314;48.184;11.510;2024-03-02T07:30:21;18.17;;;11.20;;
7661;SDS011;30314;48.184;11.510;2024-03-02T07:32:49;17.03;;;10.50;;
7661;SDS011;30314;48.184;11.510;2024-03-02T07:35:17;16.77;;;11.27;;
7661;SDS011;30314;48.184;11.510;2024-03-02T07:37:44;16.40;;;11.50;;
7661;SDS011;30314;48.184;11.510;2024-03-02T07:40:11;17.10;;;12.03;;
7661;SDS011;30314;48.184;11.510;2024-03-02T07:42:38;17.97;;;12.00;;
7661;SDS011;30314;48.184;11.510;2024-03-02T07:45:06;20.80;;;13.50;;
7661;SDS011;30314;48.184;11.510;2024-03-02T07:47:33;20.10;;;13.50;;
7661;SDS011;30314;48.184;11.510;2024-03-02T07:50:01;20.77;;;13.90;;
7661;SDS011;30314;48.184;11.510;2024-03-02T07:52:27;19.73;;;13.13;;
7661;SDS011;30314;48.184;11.510;2024-03-02T07:54:54;18.37;;;12.47;;
7661;SDS011;30314;48.184;11.510;2024-03-02T07:57:21;21.77;;;13.60;;
7661;SDS011;30314;48.184;11.510;2024-03-02T07:59:48;18.57;;;12.87;;
7661;SDS011;30314;48.184;11.510;2024-03-02T08:02:15;21.10;;;14.90;;
7661;SDS011;30314;48.184;11.510;2024-03-02T08:04:42;21.53;;;14.60;;
7661;SDS011;30314;48.184;11.510;2024-03-02T08:07:09;18.20;;;11.70;;
7661;SDS011;30314;48.184;11.510;2024-03-02T08:09:35;12.90;;;10.03;;
7661;SDS011;30314;48.184;11.510;2024-03-02T08:12:02;14.87;;;8.80;;
7661;SDS011;30314;48.184;11.510;2024-03-02T08:14:44;18.30;;;11.13;;
7661;SDS011;30314;48.184;11.510;2024-03-02T08:17:10;13.60;;;9.60;;
7661;SDS011;30314;48.184;11.510;2024-03-02T08:19:37;14.00;;;10.37;;
7661;SDS011;30314;48.184;11.510;2024-03-02T08:22:04;15.90;;;10.73;;
7661;SDS011;30314;48.184;11.510;2024-03-02T08:24:31;18.10;;;12.43;;
7661;SDS011;30314;48.184;11.510;2024-03-02T08:26:59;16.10;;;11.83;;
7661;SDS011;30314;48.184;11.510;2024-03-02T08:29:26;18.20;;;11.37;;
7661;SDS011;30314;48.184;11.510;2024-03-02T08:31:53;16.80;;;11.67;;
7661;SDS011;30314;48.184;11.510;2024-03-02T08:34:20;17.23;;;11.67;;
7661;SDS011;30314;48.184;11.510;2024-03-02T08:36:47;16.20;;;11.93;;
7661;SDS011;30314;48.184;11.510;2024-03-02T08:39:13;19.87;;;12.80;;
7661;SDS011;30314;48.184;11.510;2024-03-02T08:41:42;18.07;;;12.90;;
7661;SDS011;30314;48.184;11.510;2024-03-02T08:44:10;17.90;;;12.27;;
7661;SDS011;30314;48.184;11.510;2024-03-02T08:46:38;19.40;;;11.70;;
7661;SDS011;30314;48.184;11.510;2024-03-02T08:49:05;18.90;;;12.47;;
7661;SDS011;30314;48.184;11.510;2024-03-02T08:51:32;18.67;;;12.43;;
7661;SDS011;30314;48.184;11.510;2024-03-02T08:53:59;22.37;;;13.60;;
7661;SDS011;30314;48.184;11.510;2024-03-02T08:56:26;15.43;;;11.10;;
7661;SDS011;30314;48.184;11.510;2024-03-02T08:58:53;16.20;;;11.60;;
7661;SDS011;30314;48.184;11.510;2024-03-02T09:01:19;20.70;;;13.83;;
7661;SDS011;30314;48.184;11.510;2024-03-02T09:03:46;19.47;;;12.67;;
7661;SDS011;30314;48.184;11.510;2024-03-02T09:06:13;21.53;;;13.10;;
7661;SDS011;30314;48.184;11.510;2024-03-02T09:08:40;18.70;;;13.30;;
7661;SDS011;30314;48.184;11.510;2024-03-02T09:11:07;20.13;;;14.33;;
7661;SDS011;30314;48.184;11.510;2024-03-02T09:13:34;15.70;;;11.30;;
7661;SDS011;30314;48.184;11.510;2024-03-02T09:16:01;16.97;;;11.90;;
7661;SDS011;30314;48.184;11.510;2024-03-02T09:18:27;19.27;;;13.23;;
7661;SDS011;30314;48.184;11.510;2024-03-02T09:20:54;17.73;;;12.00;;
7661;SDS011;30314;48.184;11.510;2024-03-02T09:23:21;20.67;;;11.67;;
7661;SDS011;30314;48.184;11.510;2024-03-02T09:25:47;15.87;;;11.37;;
7661;SDS011;30314;48.184;11.510;2024-03-02T09:28:20;18.83;;;12.53;;
7661;SDS011;30314;48.184;11.510;2024-03-02T09:30:46;18.60;;;11.80;;
7661;SDS011;30314;48.184;11.510;2024-03-02T09:33:13;19.20;;;11.63;;
7661;SDS011;30314;48.184;11.510;2024-03-02T09:35:42;17.57;;;11.80;;
7661;SDS011;30314;48.184;11.510;2024-03-02T09:38:09;20.20;;;13.03;;
7661;SDS011;30314;48.184;11.510;2024-03-02T09:40:35;17.30;;;11.20;;
7661;SDS011;30314;48.184;11.510;2024-03-02T09:43:02;17.30;;;11.40;;
7661;SDS011;30314;48.184;11.510;2024-03-02T09:45:29;16.63;;;11.37;;
7661;SDS011;30314;48.184;11.510;2024-03-02T09:47:56;19.47;;;12.80;;
7661;SDS011;30314;48.184;11.510;2024-03-02T09:50:23;17.30;;;11.50;;
7661;SDS011;30314;48.184;11.510;2024-03-02T09:52:49;19.10;;;10.80;;
7661;SDS011;30314;48.184;11.510;2024-03-02T09:55:16;15.97;;;10.97;;
7661;SDS011;30314;48.184;11.510;2024-03-02T09:57:45;17.37;;;11.63;;
7661;SDS011;30314;48.184;11.510;2024-03-02T10:00:13;22.07;;;11.90;;
7661;SDS011;30314;48.184;11.510;2024-03-02T10:02:41;18.20;;;12.00;;
7661;SDS011;30314;48.184;11.510;2024-03-02T10:05:09;20.13;;;11.83;;
7661;SDS011;30314;48.184;11.510;2024-03-02T10:07:36;22.27;;;12.00;;
7661;SDS011;30314;48.184;11.510;2024-03-02T10:10:13;19.80;;;10.67;;
7661;SDS011;30314;48.184;11.510;2024-03-02T10:12:40;17.63;;;10.80;;
7661;SDS011;30314;48.184;11.510;2024-03-02T10:15:08;16.37;;;10.23;;
7661;SDS011;30314;48.184;11.510;2024-03-02T10:17:35;17.63;;;10.67;;
7661;SDS011;30314;48.184;11.510;2024-03-02T10:20:21;17.30;;;10.10;;
7661;SDS011;30314;48.184;11.510;2024-03-02T10:22:51;18.07;;;10.20;;
7661;SDS011;30314;48.184;11.510;2024-03-02T10:25:28;17.47;;;9.53;;
7661;SDS011;30314;48.184;11.510;2024-03-02T10:28:16;17.40;;;9.63;;
7661;SDS011;30314;48.184;11.510;2024-03-02T10:30:42;15.20;;;9.83;;
7661;SDS011;30314;48.184;11.510;2024-03-02T10:33:09;18.10;;;10.90;;
7661;SDS011;30314;48.184;11.510;2024-03-02T10:35:36;17.47;;;10.53;;
7661;SDS011;30314;48.184;11.510;2024-03-02T10:38:04;15.43;;;9.83;;
7661;SDS011;30314;48.184;11.510;2024-03-02T10:40:32;15.40;;;9.10;;
7661;SDS011;30314;48.184;11.510;2024-03-02T10:42:59;18.20;;;10.20;;
7661;SDS011;30314;48.184;11.510;2024-03-02T10:45:31;12.67;;;8.40;;
7661;SDS011;30314;48.184;11.510;2024-03-02T10:47:58;17.63;;;10.30;;
7661;SDS011;30314;48.184;11.510;2024-03-02T10:50:28;14.03;;;8.90;;
7661;SDS011;30314;48.184;11.510;2024-03-02T10:52:55;14.13;;;7.63;;
7661;SDS011;30314;48.184;11.510;2024-03-02T10:55:22;14.40;;;8.73;;
7661;SDS011;30314;48.184;11.510;2024-03-02T10:57:52;14.83;;;8.03;;
7661;SDS011;30314;48.184;11.510;2024-03-02T11:00:24;14.30;;;8.50;;
7661;SDS011;30314;48.184;11.510;2024-03-02T11:02:56;18.07;;;8.93;;
7661;SDS011;30314;48.184;11.510;2024-03-02T11:05:28;16.93;;;9.10;;
7661;SDS011;30314;48.184;11.510;2024-03-02T11:08:01;16.27;;;9.07;;
7661;SDS011;30314;48.184;11.510;2024-03-02T11:10:34;17.50;;;9.40;;
7661;SDS011;30314;48.184;11.510;2024-03-02T11:13:06;17.83;;;8.73;;
7661;SDS011;30314;48.184;11.510;2024-03-02T11:15:35;15.63;;;9.93;;
7661;SDS011;30314;48.184;11.510;2024-03-02T11:18:05;15.33;;;9.43;;
7661;SDS011;30314;48.184;11.510;2024-03-02T11:20:38;16.50;;;9.00;;
7661;SDS011;30314;48.184;11.510;2024-03-02T11:23:06;15.50;;;10.03;;
7661;SDS011;30314;48.184;11.510;2024-03-02T11:25:34;14.97;;;8.33;;
7661;SDS011;30314;48.184;11.510;2024-03-02T11:28:02;15.03;;;8.13;;
7661;SDS011;30314;48.184;11.510;2024-03-02T11:33:02;20.10;;;11.27;;
7661;SDS011;30314;48.184;11.510;2024-03-02T11:35:42;14.77;;;9.77;;
7661;SDS011;30314;48.184;11.510;2024-03-02T11:38:12;19.30;;;9.33;;
7661;SDS011;30314;48.184;11.510;2024-03-02T11:40:39;16.83;;;10.70;;
7661;SDS011;30314;48.184;11.510;2024-03-02T11:43:06;17.10;;;11.30;;
7661;SDS011;30314;48.184;11.510;2024-03-02T11:45:37;22.17;;;12.73;;
7661;SDS011;30314;48.184;11.510;2024-03-02T11:48:10;19.43;;;11.93;;
7661;SDS011;30314;48.184;11.510;2024-03-02T11:50:41;32.90;;;15.80;;
7661;SDS011;30314;48.184;11.510;2024-03-02T11:53:12;23.60;;;13.40;;
7661;SDS011;30314;48.184;11.510;2024-03-02T11:55:40;23.70;;;12.80;;
7661;SDS011;30314;48.184;11.510;2024-03-02T11:58:14;23.10;;;13.13;;
7661;SDS011;30314;48.184;11.510;2024-03-02T12:00:47;25.20;;;13.50;;
7661;SDS011;30314;48.184;11.510;2024-03-02T12:03:13;22.40;;;13.70;;
7661;SDS011;30314;48.184;11.510;2024-03-02T12:05:41;24.67;;;14.27;;
7661;SDS011;30314;48.184;11.510;2024-03-02T12:08:08;24.57;;;13.80;;
7661;SDS011;30314;48.184;11.510;2024-03-02T12:10:35;20.87;;;12.20;;
7661;SDS011;30314;48.184;11.510;2024-03-02T12:13:04;25.13;;;13.70;;
7661;SDS011;30314;48.184;11.510;2024-03-02T12:15:33;30.13;;;12.23;;
7661;SDS011;30314;48.184;11.510;2024-03-02T12:18:03;31.13;;;14.00;;
7661;SDS011;30314;48.184;11.510;2024-03-02T12:20:32;22.37;;;11.90;;
7661;SDS011;30314;48.184;11.510;2024-03-02T12:23:00;25.53;;;12.60;;
7661;SDS011;30314;48.184;11.510;2024-03-02T12:25:29;27.37;;;14.97;;
7661;SDS011;30314;48.184;11.510;2024-03-02T12:27:58;20.33;;;12.57;;
7661;SDS011;30314;48.184;11.510;2024-03-02T12:30:30;20.80;;;13.33;;
7661;SDS011;30314;48.184;11.510;2024-03-02T12:32:57;25.63;;;12.80;;
7661;SDS011;30314;48.184;11.510;2024-03-02T12:35:24;24.50;;;12.93;;
7661;SDS011;30314;48.184;11.510;2024-03-02T12:37:52;23.90;;;13.50;;
7661;SDS011;30314;48.184;11.510;2024-03-02T12:40:19;27.90;;;12.03;;
7661;SDS011;30314;48.184;11.510;2024-03-02T12:42:49;22.43;;;12.30;;
7661;SDS011;30314;48.184;11.510;2024-03-02T12:45:16;19.17;;;10.87;;
7661;SDS011;30314;48.184;11.510;2024-03-02T12:47:51;20.93;;;12.00;;
7661;SDS011;30314;48.184;11.510;2024-03-02T12:50:19;18.93;;;11.43;;
7661;SDS011;30314;48.184;11.510;2024-03-02T12:52:53;19.80;;;10.87;;
7661;SDS011;30314;48.184;11.510;2024-03-02T12:55:20;19.60;;;11.40;;
7661;SDS011;30314;48.184;11.510;2024-03-02T12:57:51;17.80;;;11.40;;
7661;SDS011;30314;48.184;11.510;2024-03-02T13:00:20;19.63;;;10.63;;
7661;SDS011;30314;48.184;11.510;2024-03-02T13:02:49;18.23;;;11.40;;
7661;SDS011;30314;48.184;11.510;2024-03-02T13:05:18;24.47;;;13.30;;
7661;SDS011;30314;48.184;11.510;2024-03-02T13:07:46;19.33;;;11.03;;
7661;SDS011;30314;48.184;11.510;2024-03-02T13:10:13;27.60;;;12.13;;
7661;SDS011;30314;48.184;11.510;2024-03-02T13:12:40;21.07;;;12.40;;
7661;SDS011;30314;48.184;11.510;2024-03-02T13:15:07;18.80;;;11.43;;
7661;SDS011;30314;48.184;11.510;2024-03-02T13:17:35;20.73;;;11.87;;
7661;SDS011;30314;48.184;11.510;2024-03-02T13:20:04;21.07;;;11.70;;
7661;SDS011;30314;48.184;11.510;2024-03-02T13:22:34;25.70;;;12.03;;
7661;SDS011;30314;48.184;11.510;2024-03-02T13:25:01;21.20;;;13.10;;
7661;SDS011;30314;48.184;11.510;2024-03-02T13:27:30;24.73;;;15.13;;
7661;SDS011;30314;48.184;11.510;2024-03-02T13:29:58;24.60;;;14.20;;
7661;SDS011;30314;48.184;11.510;2024-03-02T13:32:25;27.37;;;14.17;;
7661;SDS011;30314;48.184;11.510;2024-03-02T13:34:52;22.70;;;13.47;;
7661;SDS011;30314;48.184;11.510;2024-03-02T13:37:19;24.40;;;13.47;;
7661;SDS011;30314;48.184;11.510;2024-03-02T13:39:46;24.90;;;13.30;;
7661;SDS011;30314;48.184;11.510;2024-03-02T13:42:13;19.97;;;11.70;;
7661;SDS011;30314;48.184;11.510;2024-03-02T13:44:44;18.03;;;11.30;;
7661;SDS011;30314;48.184;11.510;2024-03-02T13:47:14;16.90;;;10.03;;
7661;SDS011;30314;48.184;11.510;2024-03-02T13:49:41;17.43;;;10.50;;
7661;SDS011;30314;48.184;11.510;2024-03-02T13:52:12;17.43;;;11.07;;
7661;SDS011;30314;48.184;11.510;2024-03-02T13:54:43;21.97;;;11.20;;
7661;SDS011;30314;48.184;11.510;2024-03-02T13:57:11;19.27;;;11.33;;
7661;SDS011;30314;48.184;11.510;2024-03-02T13:59:38;16.07;;;9.63;;
7661;SDS011;30314;48.184;11.510;2024-03-02T14:02:06;20.13;;;12.60;;
7661;SDS011;30314;48.184;11.510;2024-03-02T14:04:33;19.97;;;12.17;;
7661;SDS011;30314;48.184;11.510;2024-03-02T14:07:01;22.83;;;13.40;;
7661;SDS011;30314;48.184;11.510;2024-03-02T14:09:28;20.63;;;13.43;;
7661;SDS011;30314;48.184;11.510;2024-03-02T14:11:56;24.73;;;11.23;;
7661;SDS011;30314;48.184;11.510;2024-03-02T14:14:22;20.97;;;11.17;;
7661;SDS011;30314;48.184;11.510;2024-03-02T14:16:50;17.07;;;10.33;;
7661;SDS011;30314;48.184;11.510;2024-03-02T14:19:17;14.30;;;9.70;;
7661;SDS011;30314;48.184;11.510;2024-03-02T14:21:44;16.77;;;10.00;;
7661;SDS011;30314;48.184;11.510;2024-03-02T14:24:10;16.23;;;11.07;;
7661;SDS011;30314;48.184;11.510;2024-03-02T14:26:37;19.33;;;10.97;;
7661;SDS011;30314;48.184;11.510;2024-03-02T14:29:04;17.80;;;10.33;;
7661;SDS011;30314;48.184;11.510;2024-03-02T14:31:31;26.00;;;12.70;;
7661;SDS011;30314;48.184;11.510;2024-03-02T14:33:58;21.10;;;11.17;;
7661;SDS011;30314;48.184;11.510;2024-03-02T14:36:26;18.10;;;10.00;;
7661;SDS011;30314;48.184;11.510;2024-03-02T14:38:56;15.87;;;9.63;;
7661;SDS011;30314;48.184;11.510;2024-03-02T14:41:23;19.80;;;10.50;;